Time;durP1;ratioP1;P1;durP2;ratioP2;P2;SDS_P1;SDS_P2;PMS_P1;PMS_P2;Temp;Humidity;BMP_temperature;BMP_pressure;BME280_temperature;BME280_humidity;BME280_pressure;Samples;Min_cycle;Max_cycle;Signal;HPM_P1;HPM_P2
2022/02/24 00:00:22;;;;;;;3.30;1.83;;;7.70;99.90;;;;;;5066707;28;20036;-73
2022/02/24 00:02:48;;;;;;;8.43;2.40;;;7.70;99.90;;;;;;5065964;28;20867;-74
2022/02/24 00:05:15;;;;;;;7.88;2.10;;;7.70;99.90;;;;;;5066063;28;20051;-72
2022/02/24 00:07:41;;;;;;;2.85;1.65;;;7.70;99.90;;;;;;5067579;28;20025;-72
2022/02/24 00:10:10;;;;;;;3.05;1.35;;;7.70;99.90;;;;;;5066888;28;20085;-71
2022/02/24 00:12:37;;;;;;;6.07;1.33;;;7.70;99.90;;;;;;5067450;28;20124;-74
2022/02/24 00:15:07;;;;;;;7.70;2.38;;;7.70;99.90;;;;;;5067399;28;20021;-75
2022/02/24 00:17:33;;;;;;;7.03;1.42;;;7.70;99.90;;;;;;5066844;28;20089;-72
2022/02/24 00:19:59;;;;;;;4.88;2.35;;;7.70;99.90;;;;;;5067514;28;20021;-73
2022/02/24 00:22:26;;;;;;;9.60;2.45;;;7.70;99.90;;;;;;5057872;28;20485;-73
2022/02/24 00:24:52;;;;;;;9.45;1.95;;;7.70;99.90;;;;;;5065339;28;20036;-72
2022/02/24 00:27:18;;;;;;;16.52;2.22;;;7.80;99.90;;;;;;5066978;28;20151;-73
2022/02/24 00:29:45;;;;;;;6.93;1.60;;;7.80;99.90;;;;;;5067119;28;20477;-72
2022/02/24 00:32:11;;;;;;;2.22;1.15;;;7.70;99.90;;;;;;5066489;28;20055;-73
2022/02/24 00:34:36;;;;;;;7.18;1.77;;;7.70;99.90;;;;;;5065676;28;20139;-72
2022/02/24 00:37:03;;;;;;;5.80;1.90;;;7.70;99.90;;;;;;5066893;28;20085;-74
2022/02/24 00:39:29;;;;;;;15.40;2.03;;;7.70;99.90;;;;;;5065450;28;20485;-75
2022/02/24 00:41:54;;;;;;;4.60;1.95;;;7.70;99.90;;;;;;5066820;28;20040;-74
2022/02/24 00:44:20;;;;;;;11.73;1.73;;;7.70;99.90;;;;;;5066682;28;20033;-74
2022/02/24 00:46:46;;;;;;;6.22;1.88;;;7.80;99.90;;;;;;5065449;28;20116;-72
2022/02/24 00:49:12;;;;;;;3.35;1.60;;;7.70;99.90;;;;;;5065337;28;20057;-72
2022/02/24 00:51:38;;;;;;;4.25;1.23;;;7.80;99.90;;;;;;5066700;28;20036;-72
2022/02/24 00:54:05;;;;;;;3.08;1.50;;;7.80;99.90;;;;;;5066635;28;20062;-74
2022/02/24 00:56:32;;;;;;;3.03;1.55;;;7.70;99.90;;;;;;5066706;28;20021;-73
2022/02/24 00:58:58;;;;;;;2.53;1.63;;;7.70;99.90;;;;;;5065531;28;20027;-73
2022/02/24 01:01:24;;;;;;;3.42;2.17;;;7.70;99.90;;;;;;5067475;28;20025;-74
2022/02/24 01:03:51;;;;;;;3.58;2.15;;;7.70;99.90;;;;;;5065243;28;20032;-73
2022/02/24 01:06:16;;;;;;;8.18;2.20;;;7.70;99.90;;;;;;5064885;28;20025;-74
2022/02/24 01:08:42;;;;;;;5.53;2.38;;;7.70;99.90;;;;;;5065090;28;20032;-73
2022/02/24 01:11:08;;;;;;;4.80;1.60;;;7.70;99.90;;;;;;5066064;28;20021;-72
2022/02/24 01:13:34;;;;;;;8.45;2.30;;;7.80;99.90;;;;;;5066086;28;20065;-74
2022/02/24 01:16:00;;;;;;;10.27;1.80;;;7.80;99.90;;;;;;5066389;28;20029;-74
2022/02/24 01:18:28;;;;;;;4.95;1.88;;;7.80;99.90;;;;;;5065945;28;20044;-73
2022/02/24 01:20:54;;;;;;;2.47;1.60;;;7.80;99.90;;;;;;5066361;28;20495;-73
2022/02/24 01:23:20;;;;;;;4.55;1.42;;;7.80;99.90;;;;;;5066234;28;20021;-73
2022/02/24 01:25:46;;;;;;;4.95;1.95;;;7.80;99.90;;;;;;5064411;28;20032;-73
2022/02/24 01:28:11;;;;;;;2.80;1.40;;;7.80;99.90;;;;;;5048221;28;20087;-74
2022/02/24 01:30:37;;;;;;;4.80;1.80;;;7.80;99.90;;;;;;5064604;28;20068;-75
2022/02/24 01:33:03;;;;;;;6.55;1.92;;;7.90;99.90;;;;;;5065558;28;20146;-75
2022/02/24 01:35:29;;;;;;;8.50;2.13;;;7.90;99.90;;;;;;5064628;28;20029;-74
2022/02/24 01:37:54;;;;;;;9.00;2.15;;;7.90;99.90;;;;;;5054565;28;20038;-73
2022/02/24 01:40:26;;;;;;;7.20;1.90;;;7.90;99.90;;;;;;5045289;28;20030;-75
2022/02/24 01:42:52;;;;;;;3.10;2.00;;;8.00;99.90;;;;;;5044387;28;20029;-72
2022/02/24 01:45:18;;;;;;;10.05;2.25;;;8.00;99.90;;;;;;5044554;28;20068;-74
2022/02/24 01:47:44;;;;;;;6.32;2.20;;;8.00;99.90;;;;;;5045604;28;20033;-73
2022/02/24 01:50:12;;;;;;;5.18;1.98;;;8.00;99.90;;;;;;5045678;28;20026;-74
2022/02/24 01:52:39;;;;;;;3.60;2.28;;;8.00;99.90;;;;;;5045652;28;20060;-74
2022/02/24 01:55:07;;;;;;;6.82;2.30;;;8.00;99.90;;;;;;5045259;28;20029;-72
2022/02/24 01:57:33;;;;;;;7.28;1.60;;;8.00;99.90;;;;;;5045328;28;20047;-72
2022/02/24 01:59:58;;;;;;;6.60;2.78;;;8.00;99.90;;;;;;5045835;28;20093;-72
2022/02/24 02:02:24;;;;;;;5.93;1.63;;;8.00;99.90;;;;;;5043964;28;20041;-72
2022/02/24 02:04:50;;;;;;;5.40;2.22;;;8.10;99.90;;;;;;5045159;28;20037;-72
2022/02/24 02:07:16;;;;;;;3.88;2.08;;;8.10;99.90;;;;;;5045531;28;20025;-73
2022/02/24 02:09:42;;;;;;;4.15;2.17;;;8.10;99.90;;;;;;5044960;28;20080;-71
2022/02/24 02:12:08;;;;;;;11.45;1.95;;;8.10;99.90;;;;;;5043859;28;20025;-75
2022/02/24 02:14:36;;;;;;;2.35;1.50;;;8.00;99.90;;;;;;5043590;28;20045;-75
2022/02/24 02:17:03;;;;;;;4.45;1.00;;;8.00;99.90;;;;;;5044825;28;20055;-73
2022/02/24 02:19:30;;;;;;;4.93;2.08;;;8.00;99.90;;;;;;5056163;28;20029;-71
2022/02/24 02:21:55;;;;;;;7.57;1.40;;;8.00;99.90;;;;;;5065194;28;20025;-73
2022/02/24 02:24:23;;;;;;;5.78;1.92;;;8.00;99.90;;;;;;5063193;28;20540;-73
2022/02/24 02:26:49;;;;;;;7.43;2.13;;;8.00;99.90;;;;;;5064934;28;20036;-72
2022/02/24 02:29:15;;;;;;;3.90;1.77;;;8.00;99.90;;;;;;5064821;28;20028;-73
2022/02/24 02:31:41;;;;;;;4.93;2.05;;;8.00;99.90;;;;;;5064431;28;20021;-72
2022/02/24 02:34:10;;;;;;;8.40;1.88;;;8.00;99.90;;;;;;5064999;28;20029;-73
2022/02/24 02:36:37;;;;;;;4.07;1.60;;;8.00;99.90;;;;;;5064874;28;20029;-73
2022/02/24 02:39:05;;;;;;;5.38;1.83;;;8.00;99.90;;;;;;5063224;28;20033;-72
2022/02/24 02:41:34;;;;;;;3.30;1.67;;;8.00;99.90;;;;;;5063533;28;20033;-73
2022/02/24 02:44:01;;;;;;;3.00;1.45;;;8.00;99.90;;;;;;5063597;28;20029;-73
2022/02/24 02:46:28;;;;;;;3.40;1.73;;;8.00;99.90;;;;;;5062306;28;20029;-72
2022/02/24 02:48:54;;;;;;;10.63;1.67;;;8.00;99.90;;;;;;5058141;28;20037;-73
2022/02/24 02:51:20;;;;;;;4.78;1.63;;;8.00;99.90;;;;;;5064644;28;20077;-70
2022/02/24 02:53:46;;;;;;;1.95;1.00;;;8.00;99.90;;;;;;5055086;28;20041;-71
2022/02/24 02:56:12;;;;;;;1.63;1.17;;;8.00;99.90;;;;;;5062358;28;20032;-72
2022/02/24 02:58:38;;;;;;;6.05;1.95;;;8.00;99.90;;;;;;5064363;28;20035;-73
2022/02/24 03:01:04;;;;;;;4.68;1.15;;;8.00;99.90;;;;;;5064593;28;20049;-74
2022/02/24 03:03:30;;;;;;;3.53;0.85;;;8.00;99.90;;;;;;5063285;28;20025;-73
2022/02/24 03:05:56;;;;;;;4.43;1.42;;;8.00;99.90;;;;;;5064540;28;20047;-72
2022/02/24 03:08:22;;;;;;;1.95;1.00;;;8.00;99.90;;;;;;5063089;28;20025;-72
2022/02/24 03:10:48;;;;;;;3.65;1.52;;;8.00;99.90;;;;;;5063222;28;20032;-74
2022/02/24 03:13:15;;;;;;;4.45;1.52;;;8.00;99.90;;;;;;5064036;28;20120;-73
2022/02/24 03:15:42;;;;;;;1.13;0.90;;;8.00;99.90;;;;;;5064316;28;20037;-72
2022/02/24 03:18:08;;;;;;;1.38;0.90;;;8.00;99.90;;;;;;5063242;28;20033;-72
2022/02/24 03:20:33;;;;;;;2.90;1.45;;;8.00;99.90;;;;;;5064455;28;20028;-72
2022/02/24 03:23:00;;;;;;;6.53;1.38;;;8.00;99.90;;;;;;5064356;28;20029;-72
2022/02/24 03:25:30;;;;;;;3.67;1.45;;;8.00;99.90;;;;;;5064632;28;20086;-71
2022/02/24 03:27:57;;;;;;;2.55;1.13;;;8.00;99.90;;;;;;5064450;28;20029;-72
2022/02/24 03:30:23;;;;;;;1.08;0.90;;;7.90;99.90;;;;;;5063099;28;20036;-73
2022/02/24 03:32:50;;;;;;;10.70;1.33;;;7.90;99.90;;;;;;5065093;28;20236;-73
2022/02/24 03:35:16;;;;;;;1.90;1.15;;;7.90;99.90;;;;;;5066243;28;20103;-73
2022/02/24 03:37:42;;;;;;;2.80;1.20;;;7.90;99.90;;;;;;5066852;28;20028;-73
2022/02/24 03:40:09;;;;;;;6.40;1.88;;;7.90;99.90;;;;;;5067793;28;20040;-73
2022/02/24 03:42:35;;;;;;;3.03;1.40;;;7.90;99.90;;;;;;5067537;28;20037;-74
2022/02/24 03:45:01;;;;;;;2.97;1.48;;;8.00;99.90;;;;;;5066699;28;20436;-74
2022/02/24 03:47:27;;;;;;;2.72;1.38;;;7.90;99.90;;;;;;5068252;28;20048;-73
2022/02/24 03:49:53;;;;;;;2.55;1.20;;;7.90;99.90;;;;;;5067500;28;20021;-72
2022/02/24 03:52:20;;;;;;;3.22;0.88;;;7.90;99.90;;;;;;5067941;28;20088;-73
2022/02/24 03:54:47;;;;;;;14.20;1.55;;;7.90;99.90;;;;;;5065953;28;20037;-72
2022/02/24 03:57:16;;;;;;;4.22;1.42;;;7.90;99.90;;;;;;5066285;28;20111;-76
2022/02/24 03:59:42;;;;;;;8.60;1.35;;;7.90;99.90;;;;;;5067831;28;20355;-74
2022/02/24 04:02:08;;;;;;;7.38;2.03;;;7.90;99.90;;;;;;5067216;28;20052;-75
2022/02/24 04:04:35;;;;;;;3.95;1.50;;;7.90;99.90;;;;;;5066341;28;20367;-72
2022/02/24 04:07:02;;;;;;;10.90;2.05;;;7.90;99.90;;;;;;5067790;28;20116;-73
2022/02/24 04:09:28;;;;;;;9.80;1.77;;;7.90;99.90;;;;;;5065729;28;20036;-73
2022/02/24 04:11:54;;;;;;;7.25;1.17;;;7.90;99.90;;;;;;5067505;28;20025;-71
2022/02/24 04:14:21;;;;;;;3.95;2.20;;;7.90;99.90;;;;;;5065923;28;20159;-73
2022/02/24 04:16:47;;;;;;;9.00;1.77;;;7.90;99.90;;;;;;5067174;28;20025;-73
2022/02/24 04:19:12;;;;;;;13.52;1.85;;;7.90;99.90;;;;;;5067522;28;20025;-73
2022/02/24 04:21:38;;;;;;;4.38;1.60;;;7.80;99.90;;;;;;5065967;28;20025;-70
2022/02/24 04:24:05;;;;;;;10.55;2.60;;;7.80;99.90;;;;;;5066779;28;20037;-72
2022/02/24 04:26:32;;;;;;;5.78;1.33;;;7.80;99.90;;;;;;5067370;28;20477;-72
2022/02/24 04:28:58;;;;;;;3.85;1.95;;;7.80;99.90;;;;;;5067187;28;20034;-72
2022/02/24 04:31:24;;;;;;;13.77;3.00;;;7.80;99.90;;;;;;5066763;28;20025;-72
2022/02/24 04:33:50;;;;;;;13.98;2.45;;;7.80;99.90;;;;;;5065675;28;20052;-72
2022/02/24 04:36:15;;;;;;;7.38;2.13;;;7.80;99.90;;;;;;5067121;28;20033;-72
2022/02/24 04:38:41;;;;;;;6.75;1.88;;;7.80;99.90;;;;;;5065438;28;20053;-71
2022/02/24 04:41:07;;;;;;;14.18;1.73;;;7.70;99.90;;;;;;5066931;28;20029;-72
2022/02/24 04:43:33;;;;;;;3.97;1.88;;;7.80;99.90;;;;;;5064964;28;20032;-72
2022/02/24 04:46:00;;;;;;;9.40;1.70;;;7.80;99.90;;;;;;5066990;28;20028;-71
2022/02/24 04:48:26;;;;;;;18.70;2.58;;;7.70;99.90;;;;;;5067405;28;20033;-70
2022/02/24 04:50:52;;;;;;;8.07;1.92;;;7.70;99.90;;;;;;5065015;28;20032;-73
2022/02/24 04:53:18;;;;;;;12.50;2.97;;;7.70;99.90;;;;;;5066473;28;20049;-73
2022/02/24 04:55:43;;;;;;;8.35;1.55;;;7.70;99.90;;;;;;5066689;28;20040;-73
2022/02/24 04:58:09;;;;;;;7.85;2.17;;;7.70;99.90;;;;;;5066505;28;20033;-71
2022/02/24 05:00:36;;;;;;;7.13;2.28;;;7.70;99.90;;;;;;5066438;28;20428;-72
2022/02/24 05:03:02;;;;;;;12.07;2.63;;;7.70;99.90;;;;;;5066870;28;20060;-71
2022/02/24 05:05:29;;;;;;;5.70;2.70;;;7.70;99.90;;;;;;5066034;28;20423;-74
2022/02/24 05:07:55;;;;;;;6.78;1.95;;;7.70;99.90;;;;;;5065863;28;20021;-72
2022/02/24 05:10:21;;;;;;;5.85;3.13;;;7.70;99.90;;;;;;5061820;28;20029;-70
2022/02/24 05:12:46;;;;;;;9.57;3.20;;;7.70;99.90;;;;;;5050428;28;20029;-72
2022/02/24 05:15:12;;;;;;;11.02;2.95;;;7.80;99.90;;;;;;5059925;28;20470;-73
2022/02/24 05:17:41;;;;;;;5.65;2.67;;;7.70;99.90;;;;;;5060570;28;20039;-72
2022/02/24 05:20:12;;;;;;;7.82;3.55;;;7.70;99.90;;;;;;5065779;28;20033;-73
2022/02/24 05:22:41;;;;;;;9.48;2.45;;;7.70;99.90;;;;;;5066339;28;20077;-72
2022/02/24 05:25:12;;;;;;;4.97;2.15;;;7.70;99.90;;;;;;5066033;28;20017;-73
2022/02/24 05:27:38;;;;;;;16.30;2.88;;;7.70;99.90;;;;;;5064683;28;20511;-71
2022/02/24 05:30:05;;;;;;;12.98;3.45;;;7.70;99.90;;;;;;5049867;28;20029;-71
2022/02/24 05:32:32;;;;;;;5.55;2.90;;;7.70;99.90;;;;;;5045694;28;20041;-70
2022/02/24 05:34:58;;;;;;;31.33;3.83;;;7.70;99.90;;;;;;5045855;28;20041;-74
2022/02/24 05:37:26;;;;;;;9.73;2.55;;;7.60;99.90;;;;;;5046020;28;20025;-73
2022/02/24 05:39:56;;;;;;;7.13;2.33;;;7.60;99.90;;;;;;5045466;28;20021;-72
2022/02/24 05:42:22;;;;;;;13.20;3.72;;;7.60;99.90;;;;;;5062479;28;20049;-72
2022/02/24 05:44:49;;;;;;;9.52;4.35;;;7.60;99.90;;;;;;5065829;28;20036;-72
2022/02/24 05:47:17;;;;;;;8.38;4.10;;;7.60;99.90;;;;;;5065474;28;20032;-73
2022/02/24 05:49:43;;;;;;;10.05;3.30;;;7.60;99.90;;;;;;5065432;28;20427;-72
2022/02/24 05:52:09;;;;;;;8.35;2.25;;;7.60;99.90;;;;;;5065620;28;20032;-73
2022/02/24 05:54:34;;;;;;;8.85;3.20;;;7.60;99.90;;;;;;5064291;28;20037;-72
2022/02/24 05:57:01;;;;;;;8.00;3.58;;;7.60;99.90;;;;;;5060497;28;20037;-75
2022/02/24 05:59:27;;;;;;;7.65;2.70;;;7.60;99.90;;;;;;5044220;28;20029;-71
2022/02/24 06:01:53;;;;;;;8.00;3.03;;;7.60;99.90;;;;;;5045102;28;20097;-73
2022/02/24 06:04:18;;;;;;;12.82;2.63;;;7.50;99.90;;;;;;5045378;28;20140;-71
2022/02/24 06:06:45;;;;;;;5.97;2.92;;;7.60;99.90;;;;;;5050174;28;20049;-73
2022/02/24 06:09:11;;;;;;;14.68;3.70;;;7.50;99.90;;;;;;5064784;28;20358;-73
2022/02/24 06:11:37;;;;;;;9.55;3.30;;;7.60;99.90;;;;;;5065028;28;20025;-75
2022/02/24 06:14:04;;;;;;;6.18;2.92;;;7.50;99.90;;;;;;5065185;28;20131;-74
2022/02/24 06:16:33;;;;;;;5.07;2.83;;;7.50;99.90;;;;;;5063483;28;20031;-75
2022/02/24 06:18:58;;;;;;;11.93;2.78;;;7.50;99.90;;;;;;5065219;28;20462;-76
2022/02/24 06:21:24;;;;;;;11.00;3.05;;;7.50;99.90;;;;;;5065054;28;20021;-74
2022/02/24 06:23:50;;;;;;;4.70;2.35;;;7.50;99.90;;;;;;5056301;28;20021;-74
2022/02/24 06:26:15;;;;;;;4.40;2.22;;;7.60;99.90;;;;;;5046003;28;20034;-75
2022/02/24 06:28:41;;;;;;;10.80;2.47;;;7.50;99.90;;;;;;5050926;28;20040;-74
2022/02/24 06:31:07;;;;;;;12.70;3.00;;;7.50;99.90;;;;;;5044805;28;20059;-72
2022/02/24 06:33:34;;;;;;;6.28;2.42;;;7.50;99.90;;;;;;5044770;28;20046;-75
2022/02/24 06:35:59;;;;;;;9.40;2.15;;;7.50;99.90;;;;;;5060131;28;20028;-75
2022/02/24 06:38:25;;;;;;;5.45;2.40;;;7.60;99.90;;;;;;5064685;28;20509;-74
2022/02/24 06:40:52;;;;;;;10.57;2.60;;;7.50;99.90;;;;;;5055945;28;20025;-74
2022/02/24 06:43:19;;;;;;;5.32;2.42;;;7.60;99.90;;;;;;5044541;28;20512;-76
2022/02/24 06:45:45;;;;;;;13.10;2.80;;;7.60;99.90;;;;;;5043506;28;20025;-74
2022/02/24 06:48:10;;;;;;;11.18;3.00;;;7.60;99.90;;;;;;5043391;28;20371;-75
2022/02/24 06:50:36;;;;;;;8.05;3.08;;;7.60;99.90;;;;;;5044202;28;20029;-75
2022/02/24 06:53:03;;;;;;;11.23;3.15;;;7.60;99.90;;;;;;5046355;28;20053;-74
2022/02/24 06:55:29;;;;;;;11.02;2.33;;;7.60;99.90;;;;;;5051716;28;20025;-76
2022/02/24 06:57:55;;;;;;;13.05;2.92;;;7.60;99.90;;;;;;5051356;28;20050;-74
2022/02/24 07:00:22;;;;;;;5.35;3.00;;;7.60;99.90;;;;;;5048501;28;20049;-74
2022/02/24 07:02:48;;;;;;;6.10;2.92;;;7.60;99.90;;;;;;5060171;28;20056;-75
2022/02/24 07:05:17;;;;;;;9.52;3.35;;;7.60;99.90;;;;;;5061678;28;20040;-78
2022/02/24 07:07:43;;;;;;;7.53;2.72;;;7.60;99.90;;;;;;5065768;28;20028;-74
2022/02/24 07:10:14;;;;;;;8.63;3.30;;;7.60;99.90;;;;;;5067514;28;20034;-75
2022/02/24 07:12:41;;;;;;;5.25;2.38;;;7.60;99.90;;;;;;5066411;28;20025;-74
2022/02/24 07:15:09;;;;;;;8.45;2.38;;;7.50;99.90;;;;;;5066098;28;20073;-73
2022/02/24 07:17:46;;;;;;;12.82;3.47;;;7.50;99.90;;;;;;5065850;28;20028;-74
2022/02/24 07:20:13;;;;;;;3.60;1.63;;;7.50;99.90;;;;;;5051315;28;20482;-74
2022/02/24 07:22:39;;;;;;;7.25;2.92;;;7.50;99.90;;;;;;5054724;28;20059;-74
2022/02/24 07:25:06;;;;;;;9.35;2.45;;;7.50;99.90;;;;;;5066858;28;20025;-73
2022/02/24 07:27:33;;;;;;;24.50;2.78;;;7.50;99.90;;;;;;5053787;28;20057;-73
2022/02/24 07:30:00;;;;;;;6.50;2.65;;;7.50;99.90;;;;;;5060401;28;20051;-74
2022/02/24 09:05:56;;;;;;;3.50;1.65;;;8.60;99.90;;;;;;5227094;23;21391;-75
2022/02/24 09:08:22;;;;;;;2.58;1.30;;;8.70;99.90;;;;;;5003207;28;20034;-77
2022/02/24 09:10:48;;;;;;;5.43;2.55;;;8.70;99.90;;;;;;5004524;28;20044;-75
2022/02/24 09:13:14;;;;;;;6.45;2.15;;;8.70;99.90;;;;;;5003338;28;20409;-76
2022/02/24 09:15:41;;;;;;;5.97;1.48;;;8.80;99.90;;;;;;5022281;28;20046;-77
2022/02/24 09:18:09;;;;;;;3.45;1.67;;;8.80;99.90;;;;;;5022957;28;20211;-79
2022/02/24 09:20:34;;;;;;;5.47;1.90;;;8.80;99.90;;;;;;5018282;28;20029;-72
2022/02/24 09:23:00;;;;;;;8.68;1.75;;;8.80;99.90;;;;;;5025675;28;20041;-72
2022/02/24 09:25:26;;;;;;;4.28;1.80;;;8.90;99.90;;;;;;5014791;28;20022;-72
2022/02/24 09:27:52;;;;;;;3.60;1.92;;;9.10;99.90;;;;;;5001258;28;20034;-73
2022/02/24 09:30:18;;;;;;;4.82;1.77;;;9.20;99.90;;;;;;5020022;28;20479;-74
2022/02/24 09:32:45;;;;;;;2.20;0.93;;;9.30;99.90;;;;;;5045281;28;20045;-73
2022/02/24 09:35:14;;;;;;;10.30;1.83;;;9.40;99.90;;;;;;5044352;28;20096;-76
2022/02/24 09:37:42;;;;;;;4.85;1.40;;;9.40;99.90;;;;;;5022701;28;20025;-75
2022/02/24 09:40:09;;;;;;;6.32;1.55;;;9.30;99.90;;;;;;5023932;28;20033;-75
2022/02/24 09:42:36;;;;;;;3.42;1.73;;;9.30;99.90;;;;;;5035292;28;20046;-74
2022/02/24 09:45:03;;;;;;;7.13;1.70;;;9.40;99.90;;;;;;5036545;28;20045;-77
2022/02/24 09:47:29;;;;;;;9.57;2.33;;;9.40;99.90;;;;;;5008092;28;20100;-75
2022/02/24 09:49:58;;;;;;;12.02;2.22;;;9.40;99.90;;;;;;5007704;28;20390;-75
2022/02/24 09:52:24;;;;;;;9.85;2.22;;;9.40;99.90;;;;;;5025344;28;20032;-73
2022/02/24 09:54:50;;;;;;;4.00;1.45;;;9.60;99.90;;;;;;4999995;28;20406;-77
2022/02/24 09:57:16;;;;;;;8.35;1.67;;;9.50;99.90;;;;;;5007363;28;20106;-73
2022/02/24 09:59:41;;;;;;;7.10;1.83;;;9.60;99.90;;;;;;5007756;28;20026;-73
2022/02/24 10:02:10;;;;;;;9.35;2.03;;;10.00;99.90;;;;;;5002212;28;20440;-76
2022/02/24 10:04:36;;;;;;;3.05;1.65;;;10.20;99.90;;;;;;4997511;28;20029;-74
2022/02/24 10:07:02;;;;;;;10.75;1.98;;;10.30;99.90;;;;;;5044874;28;20671;-77
2022/02/24 10:09:32;;;;;;;9.57;1.63;;;10.50;99.90;;;;;;5045112;28;20021;-75
2022/02/24 10:12:05;;;;;;;7.50;1.80;;;10.70;99.90;;;;;;5027043;28;20040;-75
2022/02/24 10:14:35;;;;;;;3.17;1.40;;;10.80;99.90;;;;;;5039071;28;20045;-74
2022/02/24 10:17:05;;;;;;;3.58;1.30;;;10.70;99.90;;;;;;5026856;28;20067;-76
2022/02/24 10:19:43;;;;;;;12.20;2.00;;;10.60;99.90;;;;;;5043421;28;20037;-76
2022/02/24 10:22:26;;;;;;;5.28;1.67;;;10.40;99.90;;;;;;5027699;28;20025;-75
2022/02/24 10:25:15;;;;;;;5.68;1.60;;;10.30;99.90;;;;;;5044333;28;20496;-74
2022/02/24 10:27:48;;;;;;;5.82;1.83;;;10.20;99.90;;;;;;5027188;28;20033;-74
2022/02/24 10:30:16;;;;;;;4.63;1.70;;;10.10;99.90;;;;;;5042406;28;20025;-76
2022/02/24 10:32:49;;;;;;;3.63;2.15;;;10.10;99.90;;;;;;5037218;28;20104;-73
2022/02/24 10:35:32;;;;;;;2.72;1.75;;;9.90;99.90;;;;;;5043652;28;20073;-75
2022/02/24 10:38:04;;;;;;;4.10;1.50;;;10.00;99.90;;;;;;5043668;28;20044;-74
2022/02/24 10:40:33;;;;;;;3.83;1.58;;;10.00;99.90;;;;;;5043539;28;20036;-73
2022/02/24 10:43:27;;;;;;;6.35;1.52;;;10.10;99.90;;;;;;5044398;28;20040;-75
2022/02/24 10:46:06;;;;;;;5.30;1.92;;;10.30;99.90;;;;;;5026545;28;20025;-74
2022/02/24 10:48:52;;;;;;;4.57;2.40;;;10.40;99.90;;;;;;5025982;28;20038;-74
2022/02/24 10:51:31;;;;;;;3.42;1.33;;;10.60;99.90;;;;;;5042998;28;20061;-75
2022/02/24 10:54:12;;;;;;;4.85;1.58;;;10.80;99.90;;;;;;5025644;28;20060;-76
2022/02/24 10:56:42;;;;;;;7.43;1.73;;;10.90;99.90;;;;;;5025090;28;20037;-73
2022/02/24 10:59:12;;;;;;;8.57;1.75;;;11.00;99.90;;;;;;5014618;28;20022;-76
2022/02/24 11:01:42;;;;;;;7.47;1.40;;;11.00;99.90;;;;;;5044467;28;20021;-76
2022/02/24 11:04:08;;;;;;;7.15;1.63;;;10.90;99.90;;;;;;5026272;28;20068;-73
2022/02/24 11:06:37;;;;;;;5.55;1.45;;;10.80;99.90;;;;;;5043936;28;20405;-75
2022/02/24 11:09:05;;;;;;;5.65;1.85;;;10.70;99.90;;;;;;5023022;28;20167;-76
2022/02/24 11:11:36;;;;;;;2.65;1.55;;;10.60;99.90;;;;;;5035957;28;20026;-73
2022/02/24 11:14:05;;;;;;;1.63;0.90;;;10.60;99.90;;;;;;5044249;28;20098;-74
2022/02/24 11:16:31;;;;;;;5.38;1.33;;;10.40;99.90;;;;;;5044085;28;20029;-76
2022/02/24 11:18:57;;;;;;;8.40;1.58;;;10.40;99.90;;;;;;5024962;28;20037;-73
2022/02/24 11:21:24;;;;;;;11.25;1.70;;;10.20;99.90;;;;;;5031878;28;20026;-73
2022/02/24 11:23:51;;;;;;;4.78;1.85;;;10.30;99.90;;;;;;5039914;28;20026;-75
2022/02/24 11:26:17;;;;;;;8.52;2.28;;;10.30;99.90;;;;;;5026080;28;20021;-75
2022/02/24 11:29:07;;;;;;;3.83;1.48;;;10.30;99.90;;;;;;5042592;28;20034;-74
2022/02/24 11:31:42;;;;;;;7.47;1.27;;;10.30;99.90;;;;;;5019859;28;20030;-73
2022/02/24 11:34:09;;;;;;;6.90;1.23;;;10.30;99.90;;;;;;5035397;28;20037;-75
2022/02/24 11:36:43;;;;;;;3.22;1.20;;;10.40;99.90;;;;;;5034376;28;20026;-74
2022/02/24 11:39:16;;;;;;;4.32;1.30;;;10.40;99.90;;;;;;5018510;28;20377;-74
2022/02/24 11:41:45;;;;;;;4.05;1.15;;;10.50;99.90;;;;;;5042399;28;20025;-74
2022/02/24 11:44:32;;;;;;;2.88;0.80;;;10.60;99.90;;;;;;5043219;28;20120;-73
2022/02/24 11:46:59;;;;;;;2.58;0.90;;;11.00;99.90;;;;;;5043052;28;20113;-74
2022/02/24 11:49:54;;;;;;;4.00;1.45;;;11.70;99.90;;;;;;5023639;28;20034;-75
2022/02/24 11:52:42;;;;;;;1.80;1.05;;;12.00;99.90;;;;;;5019904;28;20037;-75
2022/02/24 11:55:39;;;;;;;9.05;1.45;;;12.40;99.90;;;;;;5027446;28;20042;-74
2022/02/24 11:58:34;;;;;;;4.47;1.55;;;12.50;99.90;;;;;;5059237;28;20064;-76
2022/02/24 12:01:22;;;;;;;;;;;12.60;99.90;;;;;;5047609;28;20032;-76
2022/02/24 12:03:52;;;;;;;2.53;1.10;;;12.90;99.90;;;;;;5035124;28;19960;-75
2022/02/24 12:06:36;;;;;;;6.72;1.02;;;12.90;99.90;;;;;;5037651;28;20037;-75
2022/02/24 12:09:15;;;;;;;1.75;1.10;;;13.10;99.90;;;;;;5046104;28;20043;-75
2022/02/24 12:12:02;;;;;;;4.60;1.33;;;13.00;99.90;;;;;;5028803;28;20509;-75
2022/02/24 12:14:28;;;;;;;4.88;1.98;;;12.80;99.90;;;;;;5046093;28;20072;-74
2022/02/24 12:17:05;;;;;;;6.88;1.48;;;12.50;99.90;;;;;;5045975;28;20026;-73
2022/02/24 12:19:45;;;;;;;2.60;0.80;;;12.10;99.90;;;;;;5026054;28;20052;-73
2022/02/24 12:22:14;;;;;;;1.80;0.93;;;11.90;99.90;;;;;;5019092;28;20025;-75
2022/02/24 12:24:44;;;;;;;1.70;0.90;;;11.90;99.90;;;;;;5027831;28;20037;-77
2022/02/24 12:27:26;;;;;;;4.25;1.05;;;11.70;99.90;;;;;;5045464;28;20033;-74
2022/02/24 12:30:11;;;;;;;12.65;1.65;;;11.60;99.90;;;;;;5043920;28;20026;-77
2022/02/24 12:32:49;;;;;;;1.13;0.70;;;11.50;99.90;;;;;;5027683;28;20036;-77
2022/02/24 12:35:19;;;;;;;12.35;1.00;;;11.40;99.90;;;;;;5027496;28;20513;-74
2022/02/24 12:37:47;;;;;;;1.23;0.80;;;11.40;99.90;;;;;;5044762;28;20025;-75
2022/02/24 12:40:26;;;;;;;3.47;1.05;;;11.40;99.90;;;;;;5027736;28;20393;-76
2022/02/24 12:42:56;;;;;;;3.00;1.50;;;11.70;99.90;;;;;;5043684;28;20468;-75
2022/02/24 12:45:23;;;;;;;5.60;1.00;;;11.70;99.90;;;;;;5042869;28;20079;-76
2022/02/24 12:47:53;;;;;;;2.25;0.85;;;11.60;99.90;;;;;;5042980;28;20037;-77
2022/02/24 12:50:36;;;;;;;2.38;1.10;;;11.70;99.90;;;;;;5027042;28;20099;-76
2022/02/24 12:53:16;;;;;;;3.38;1.70;;;11.80;99.90;;;;;;5044151;28;20427;-75
2022/02/24 12:55:47;;;;;;;2.97;1.10;;;11.90;99.90;;;;;;5026281;28;20112;-77
2022/02/24 13:00:49;;;;;;;3.40;1.40;;;11.80;99.90;;;;;;5034214;28;20531;-72
2022/02/24 13:03:16;;;;;;;2.30;0.88;;;11.60;99.90;;;;;;5027906;28;20083;-75
2022/02/24 13:05:59;;;;;;;4.38;1.23;;;11.50;99.90;;;;;;5014074;28;20041;-76
2022/02/24 13:11:17;;;;;;;1.58;0.70;;;11.30;99.90;;;;;;5058261;28;20044;-76
2022/02/24 13:13:43;;;;;;;7.10;1.40;;;11.20;99.90;;;;;;5042372;28;20039;-74
2022/02/24 13:16:11;;;;;;;1.73;0.73;;;11.00;99.90;;;;;;5039457;28;20047;-75
2022/02/24 13:18:39;;;;;;;9.95;1.08;;;10.90;99.90;;;;;;5026345;28;20414;-75
2022/02/24 13:21:05;;;;;;;3.38;1.48;;;10.80;99.90;;;;;;5013896;28;20052;-76
2022/02/24 13:23:31;;;;;;;3.42;0.90;;;10.80;99.90;;;;;;5025999;28;20044;-77
2022/02/24 13:25:59;;;;;;;7.10;1.38;;;10.90;99.90;;;;;;5042472;28;20060;-76
2022/02/24 13:28:33;;;;;;;3.00;1.10;;;10.90;99.90;;;;;;5044070;28;20029;-75
2022/02/24 13:31:02;;;;;;;1.15;0.73;;;11.00;99.90;;;;;;5037841;28;20053;-74
2022/02/24 13:33:47;;;;;;;5.50;1.40;;;11.00;99.90;;;;;;5028261;28;20038;-76
2022/02/24 13:36:12;;;;;;;4.30;1.65;;;11.30;99.90;;;;;;5039882;28;20083;-76
2022/02/24 13:38:45;;;;;;;1.55;1.17;;;11.40;99.90;;;;;;5043568;28;20029;-75
2022/02/24 13:41:17;;;;;;;0.90;0.75;;;11.60;99.90;;;;;;5026314;28;20488;-74
2022/02/24 13:43:47;;;;;;;22.63;1.15;;;11.60;99.90;;;;;;5026313;28;20389;-73
2022/02/24 13:46:17;;;;;;;8.75;0.82;;;11.50;99.90;;;;;;5036665;28;20052;-75
2022/02/24 13:48:47;;;;;;;1.33;1.00;;;11.50;99.90;;;;;;5024306;28;20051;-75
2022/02/24 13:51:18;;;;;;;1.63;0.93;;;11.40;99.90;;;;;;5014994;28;20090;-75
2022/02/24 13:53:55;;;;;;;1.45;1.00;;;11.40;99.90;;;;;;5033237;28;20037;-74
2022/02/24 13:56:23;;;;;;;1.30;0.90;;;11.40;99.90;;;;;;5010299;28;20037;-75
2022/02/24 13:58:51;;;;;;;2.17;1.02;;;11.60;99.90;;;;;;5027355;28;20426;-75
2022/02/24 14:01:18;;;;;;;5.38;1.65;;;11.70;99.90;;;;;;5028496;28;20076;-73
2022/02/24 14:03:48;;;;;;;3.45;1.38;;;11.70;99.90;;;;;;5031822;28;20026;-75
2022/02/24 14:06:19;;;;;;;3.67;1.17;;;11.80;99.90;;;;;;5023734;28;20026;-73
2022/02/24 14:08:48;;;;;;;2.70;1.00;;;12.20;99.90;;;;;;5029243;28;20842;-73
2022/02/24 14:11:27;;;;;;;3.33;1.08;;;12.60;99.90;;;;;;5041101;28;20021;-74
2022/02/24 14:13:57;;;;;;;1.50;0.90;;;12.70;99.90;;;;;;5033740;28;20041;-77
2022/02/24 14:16:24;;;;;;;1.60;0.95;;;12.70;99.90;;;;;;5031402;28;20109;-77
2022/02/24 14:18:50;;;;;;;3.60;1.35;;;13.20;99.90;;;;;;5007932;28;20033;-74
2022/02/24 14:21:17;;;;;;;4.75;1.10;;;13.10;99.90;;;;;;5028193;28;20076;-71
2022/02/24 14:23:45;;;;;;;4.25;1.35;;;13.40;99.90;;;;;;5026193;28;20026;-81
2022/02/24 14:26:11;;;;;;;1.38;0.93;;;13.70;99.90;;;;;;5019916;28;20037;-78
2022/02/24 14:28:39;;;;;;;6.07;1.42;;;13.40;99.90;;;;;;5021408;28;20030;-73
2022/02/24 14:31:05;;;;;;;1.67;0.85;;;12.80;99.90;;;;;;5034461;28;20022;-76
2022/02/24 14:33:35;;;;;;;2.85;1.10;;;12.40;99.90;;;;;;5023707;28;20053;-74
2022/02/24 14:36:08;;;;;;;6.75;1.67;;;12.00;99.90;;;;;;5037328;28;20072;-73
2022/02/24 14:38:36;;;;;;;1.70;0.88;;;11.80;99.90;;;;;;5025366;28;20059;-75